Gilbertville, Massachusetts
Current Conditions -  °F | °C
As of 10:54 PM on Thursday 27 Nov 2014 (Local Time) from KORH Reporting Station
Overcast Overcast  
Wind Chill: 20°   Ceiling: 8000
Heat Index: 27°   Visibility: 10mi
Dew Point: 24°   Wind: 6mph
Humidity: 89%   Direction: 330°NNW
Pressure: 29.96"   Gusts: NA
Location:  42.31°N, 72.21°W
Report Text: KORH 280354Z AUTO 33005KT 10SM FEW060 OVC080 M03/M04 A2996 RMK AO2 SNE17 SLP160 P0000 T10281044
Loading
Personal Weather Stations






























Interactive Weather Map New forecast layout! Learn more

10-Day Weather Forecast

Advertisements
Track Severe Weather on mobile